Hlavní strana
METAR-TAF:

METAR-TAF

Letiště :

Nairobi, Keňa

zeměpisná šířka: 01-19S, zeměpisná délka: 036-55E, výška: 1624 m

Aktuální stav počasí

Zpráva byla vytvořena před 45 minutami, v 17:00 UTC
Východní vítr 12 kt
Teplota 24°C
Vlhkost vzduchu 50%
Tlak 1018 hPa
Viditelnost 10 km a více
Skoro jasno ve výšce 2500 ft

METAR: HKJK 181700Z 09012KT 9999 FEW025 24/13 Q1018

Čas: 20:45 (17:45 UTC)

Předpověď počasí

Zpráva byla vytvořena před 12 hodinami a 45 minutami, v 05:00 UTC
Předpověď platná od 18 v 06 UTC do 19 v 12 UTC
Východoseverovýchodní vítr 15 kt
Viditelnost 10 km a více
Polojasno ve výšce 2700 ft
Změna
od 18 v 20 UTC do 18 v 23 UTC
Severoseverovýchodní vítr 5 kt
Viditelnost 10 km a více
Žádná oblačnost pod 1500 m, nevyskytují se cumulonimby.
Dočasný
od 19 v 00 UTC do 19 v 06 UTC
Viditelnost 10 km a více
Oblačno až skoro zataženo ve výšce 1900 ft

TAF: HKJK 180500Z 1806/1912 06015KT 9999 SCT027 BECMG 1820/1823 03005KT CAVOK TEMPO 1900/1906 9999 BKN019

Stav a předpovědi počasí z více než 4 000 letišť (zprávy METAR a TAF).

Červené a žluté tečky na mapě představují dostupné meteorologické stanice.

Když kurzor umístíte na tečku, zobrazí se název stanice.

Pak kliknutím zobrazíte stav a předpověď počasí.

Chcete-li změnit mapu, kliknutím na zelené tlačítko se znaménkem +mapu přiblížíte, kliknutím na zelené tlačítko se znaménkem – mapu oddálíte a kliknutím na zelené šipky přejdete na sousední mapy.


METAR-TAF: